East Islip, New York
Current Conditions -  °F | °C
As of 2:37 PM on Thursday 23 Oct 2014 (Local Time) from KISP Reporting Station
Light Rain Light Rain  
Wind Chill: 51°   Ceiling: 1500
Heat Index: 51°   Visibility: 5mi
Dew Point: 49°   Wind: 18mph
Humidity: 92%   Direction: 330°NNW
Pressure: 29.62"   Gusts: NA
Location:  40.73°N, 73.19°W
Report Text: KISP 231837Z 33016KT 5SM -RA BR SCT008 OVC015 11/09 A2962 RMK AO2 P0000 T01060094
Loading
Personal Weather Stations






























Interactive Weather Map New forecast layout! Learn more

10-Day Weather Forecast

Advertisements
Track Severe Weather on mobile